sensor_id;sensor_type;location;lat;lon;timestamp;P1;durP1;ratioP1;P2;durP2;ratioP2
24833;SDS011;12914;43.702;22.862;2022-08-21T00:02:13;20.92;;;16.65;;
24833;SDS011;12914;43.702;22.862;2022-08-21T00:04:40;27.75;;;17.00;;
24833;SDS011;12914;43.702;22.862;2022-08-21T00:07:05;21.00;;;15.88;;
24833;SDS011;12914;43.702;22.862;2022-08-21T00:09:31;18.75;;;15.95;;
24833;SDS011;12914;43.702;22.862;2022-08-21T00:11:56;20.98;;;16.55;;
24833;SDS011;12914;43.702;22.862;2022-08-21T00:14:22;20.55;;;17.33;;
24833;SDS011;12914;43.702;22.862;2022-08-21T00:16:48;23.13;;;16.50;;
24833;SDS011;12914;43.702;22.862;2022-08-21T00:19:14;22.13;;;17.58;;
24833;SDS011;12914;43.702;22.862;2022-08-21T00:21:39;20.88;;;17.88;;
24833;SDS011;12914;43.702;22.862;2022-08-21T00:24:05;23.98;;;18.75;;
24833;SDS011;12914;43.702;22.862;2022-08-21T00:26:30;24.85;;;17.30;;
24833;SDS011;12914;43.702;22.862;2022-08-21T00:28:56;20.80;;;17.02;;
24833;SDS011;12914;43.702;22.862;2022-08-21T00:31:22;24.27;;;18.15;;
24833;SDS011;12914;43.702;22.862;2022-08-21T00:33:47;28.80;;;19.92;;
24833;SDS011;12914;43.702;22.862;2022-08-21T00:36:13;22.80;;;18.67;;
24833;SDS011;12914;43.702;22.862;2022-08-21T00:38:39;21.90;;;18.25;;
24833;SDS011;12914;43.702;22.862;2022-08-21T00:41:05;26.45;;;19.20;;
24833;SDS011;12914;43.702;22.862;2022-08-21T00:43:33;24.08;;;18.75;;
24833;SDS011;12914;43.702;22.862;2022-08-21T00:46:01;25.55;;;20.33;;
24833;SDS011;12914;43.702;22.862;2022-08-21T00:48:27;25.10;;;18.83;;
24833;SDS011;12914;43.702;22.862;2022-08-21T00:50:55;26.55;;;19.67;;
24833;SDS011;12914;43.702;22.862;2022-08-21T00:53:25;26.30;;;20.08;;
24833;SDS011;12914;43.702;22.862;2022-08-21T00:55:52;29.15;;;20.95;;
24833;SDS011;12914;43.702;22.862;2022-08-21T00:58:18;28.83;;;21.17;;
24833;SDS011;12914;43.702;22.862;2022-08-21T01:00:45;29.83;;;21.73;;
24833;SDS011;12914;43.702;22.862;2022-08-21T01:03:14;27.08;;;22.27;;
24833;SDS011;12914;43.702;22.862;2022-08-21T01:05:43;31.85;;;22.70;;
24833;SDS011;12914;43.702;22.862;2022-08-21T01:08:10;34.97;;;24.00;;
24833;SDS011;12914;43.702;22.862;2022-08-21T01:10:38;28.25;;;21.83;;
24833;SDS011;12914;43.702;22.862;2022-08-21T01:13:06;26.23;;;21.90;;
24833;SDS011;12914;43.702;22.862;2022-08-21T01:15:36;29.73;;;22.90;;
24833;SDS011;12914;43.702;22.862;2022-08-21T01:18:04;27.92;;;22.30;;
24833;SDS011;12914;43.702;22.862;2022-08-21T01:20:32;32.58;;;22.75;;
24833;SDS011;12914;43.702;22.862;2022-08-21T01:22:58;30.52;;;24.08;;
24833;SDS011;12914;43.702;22.862;2022-08-21T01:25:25;32.58;;;24.35;;
24833;SDS011;12914;43.702;22.862;2022-08-21T01:27:50;26.08;;;22.75;;
24833;SDS011;12914;43.702;22.862;2022-08-21T01:30:18;30.15;;;23.08;;
24833;SDS011;12914;43.702;22.862;2022-08-21T01:32:47;30.50;;;22.75;;
24833;SDS011;12914;43.702;22.862;2022-08-21T01:35:14;30.00;;;23.50;;
24833;SDS011;12914;43.702;22.862;2022-08-21T01:37:41;34.30;;;22.95;;
24833;SDS011;12914;43.702;22.862;2022-08-21T01:40:08;28.05;;;22.63;;
24833;SDS011;12914;43.702;22.862;2022-08-21T01:42:35;28.95;;;23.40;;
24833;SDS011;12914;43.702;22.862;2022-08-21T01:45:01;31.17;;;24.85;;
24833;SDS011;12914;43.702;22.862;2022-08-21T01:47:26;30.35;;;23.25;;
24833;SDS011;12914;43.702;22.862;2022-08-21T01:49:52;38.75;;;25.40;;
24833;SDS011;12914;43.702;22.862;2022-08-21T01:52:18;31.17;;;24.25;;
24833;SDS011;12914;43.702;22.862;2022-08-21T01:54:44;37.97;;;26.00;;
24833;SDS011;12914;43.702;22.862;2022-08-21T01:57:10;32.70;;;25.23;;
24833;SDS011;12914;43.702;22.862;2022-08-21T01:59:37;31.40;;;24.10;;
24833;SDS011;12914;43.702;22.862;2022-08-21T02:02:03;35.80;;;24.95;;
24833;SDS011;12914;43.702;22.862;2022-08-21T02:04:28;37.55;;;24.58;;
24833;SDS011;12914;43.702;22.862;2022-08-21T02:06:55;30.42;;;23.45;;
24833;SDS011;12914;43.702;22.862;2022-08-21T02:09:21;32.33;;;24.83;;
24833;SDS011;12914;43.702;22.862;2022-08-21T02:11:47;34.83;;;24.67;;
24833;SDS011;12914;43.702;22.862;2022-08-21T02:14:14;28.52;;;24.83;;
24833;SDS011;12914;43.702;22.862;2022-08-21T02:16:41;32.00;;;24.17;;
24833;SDS011;12914;43.702;22.862;2022-08-21T02:19:07;32.13;;;26.42;;
24833;SDS011;12914;43.702;22.862;2022-08-21T02:21:33;33.83;;;25.90;;
24833;SDS011;12914;43.702;22.862;2022-08-21T02:23:58;32.42;;;25.40;;
24833;SDS011;12914;43.702;22.862;2022-08-21T02:26:24;36.20;;;26.17;;
24833;SDS011;12914;43.702;22.862;2022-08-21T02:28:51;35.83;;;26.65;;
24833;SDS011;12914;43.702;22.862;2022-08-21T02:31:17;37.80;;;28.00;;
24833;SDS011;12914;43.702;22.862;2022-08-21T02:33:42;38.65;;;27.92;;
24833;SDS011;12914;43.702;22.862;2022-08-21T02:36:09;39.60;;;30.70;;
24833;SDS011;12914;43.702;22.862;2022-08-21T02:38:36;40.85;;;29.90;;
24833;SDS011;12914;43.702;22.862;2022-08-21T02:41:04;40.75;;;31.60;;
24833;SDS011;12914;43.702;22.862;2022-08-21T02:43:32;40.38;;;30.48;;
24833;SDS011;12914;43.702;22.862;2022-08-21T02:45:58;39.15;;;29.52;;
24833;SDS011;12914;43.702;22.862;2022-08-21T02:48:26;41.10;;;29.95;;
24833;SDS011;12914;43.702;22.862;2022-08-21T02:50:54;38.90;;;29.85;;
24833;SDS011;12914;43.702;22.862;2022-08-21T02:53:26;36.80;;;28.17;;
24833;SDS011;12914;43.702;22.862;2022-08-21T02:55:52;35.22;;;27.52;;
24833;SDS011;12914;43.702;22.862;2022-08-21T02:58:21;37.83;;;26.63;;
24833;SDS011;12914;43.702;22.862;2022-08-21T03:00:52;33.85;;;25.77;;
24833;SDS011;12914;43.702;22.862;2022-08-21T03:03:17;34.70;;;26.17;;
24833;SDS011;12914;43.702;22.862;2022-08-21T03:05:43;34.80;;;26.02;;
24833;SDS011;12914;43.702;22.862;2022-08-21T03:08:11;34.83;;;26.10;;
24833;SDS011;12914;43.702;22.862;2022-08-21T03:10:38;35.97;;;26.40;;
24833;SDS011;12914;43.702;22.862;2022-08-21T03:13:06;35.90;;;27.65;;
24833;SDS011;12914;43.702;22.862;2022-08-21T03:15:32;34.35;;;27.13;;
24833;SDS011;12914;43.702;22.862;2022-08-21T03:17:58;33.42;;;25.80;;
24833;SDS011;12914;43.702;22.862;2022-08-21T03:20:24;39.38;;;25.48;;
24833;SDS011;12914;43.702;22.862;2022-08-21T03:22:52;37.17;;;25.50;;
24833;SDS011;12914;43.702;22.862;2022-08-21T03:25:19;34.22;;;24.23;;
24833;SDS011;12914;43.702;22.862;2022-08-21T03:27:46;30.13;;;23.23;;
24833;SDS011;12914;43.702;22.862;2022-08-21T03:30:14;32.00;;;23.48;;
24833;SDS011;12914;43.702;22.862;2022-08-21T03:32:41;29.65;;;22.92;;
24833;SDS011;12914;43.702;22.862;2022-08-21T03:35:07;30.98;;;22.83;;
24833;SDS011;12914;43.702;22.862;2022-08-21T03:37:33;29.92;;;22.80;;
24833;SDS011;12914;43.702;22.862;2022-08-21T03:39:59;30.83;;;22.77;;
24833;SDS011;12914;43.702;22.862;2022-08-21T03:42:25;27.77;;;23.67;;
24833;SDS011;12914;43.702;22.862;2022-08-21T03:44:50;36.47;;;25.30;;
24833;SDS011;12914;43.702;22.862;2022-08-21T03:47:16;29.25;;;24.33;;
24833;SDS011;12914;43.702;22.862;2022-08-21T03:49:42;30.13;;;25.50;;
24833;SDS011;12914;43.702;22.862;2022-08-21T03:52:07;37.88;;;27.83;;
24833;SDS011;12914;43.702;22.862;2022-08-21T03:54:33;34.45;;;27.95;;
24833;SDS011;12914;43.702;22.862;2022-08-21T03:56:59;34.10;;;26.85;;
24833;SDS011;12914;43.702;22.862;2022-08-21T03:59:25;37.60;;;27.73;;
24833;SDS011;12914;43.702;22.862;2022-08-21T04:01:54;40.70;;;28.60;;
24833;SDS011;12914;43.702;22.862;2022-08-21T04:04:22;34.17;;;27.90;;
24833;SDS011;12914;43.702;22.862;2022-08-21T04:06:47;34.40;;;29.08;;
24833;SDS011;12914;43.702;22.862;2022-08-21T04:09:15;38.90;;;27.52;;
24833;SDS011;12914;43.702;22.862;2022-08-21T04:11:41;37.78;;;28.40;;
24833;SDS011;12914;43.702;22.862;2022-08-21T04:14:07;38.53;;;27.95;;
24833;SDS011;12914;43.702;22.862;2022-08-21T04:16:32;36.78;;;27.05;;
24833;SDS011;12914;43.702;22.862;2022-08-21T04:18:58;46.05;;;31.27;;
24833;SDS011;12914;43.702;22.862;2022-08-21T04:21:23;40.58;;;30.52;;
24833;SDS011;12914;43.702;22.862;2022-08-21T04:23:49;42.55;;;31.70;;
24833;SDS011;12914;43.702;22.862;2022-08-21T04:26:15;40.65;;;29.90;;
24833;SDS011;12914;43.702;22.862;2022-08-21T04:28:40;41.17;;;31.35;;
24833;SDS011;12914;43.702;22.862;2022-08-21T04:31:07;37.22;;;30.20;;
24833;SDS011;12914;43.702;22.862;2022-08-21T04:33:33;37.83;;;29.00;;
24833;SDS011;12914;43.702;22.862;2022-08-21T04:35:59;35.85;;;29.75;;
24833;SDS011;12914;43.702;22.862;2022-08-21T04:38:24;38.78;;;28.35;;
24833;SDS011;12914;43.702;22.862;2022-08-21T04:40:51;36.20;;;29.48;;
24833;SDS011;12914;43.702;22.862;2022-08-21T04:43:17;37.85;;;28.25;;
24833;SDS011;12914;43.702;22.862;2022-08-21T04:45:46;37.33;;;28.65;;
24833;SDS011;12914;43.702;22.862;2022-08-21T04:48:13;33.28;;;25.77;;
24833;SDS011;12914;43.702;22.862;2022-08-21T04:53:06;25.73;;;22.38;;
24833;SDS011;12914;43.702;22.862;2022-08-21T04:55:35;28.90;;;22.45;;
24833;SDS011;12914;43.702;22.862;2022-08-21T04:58:02;28.15;;;23.73;;
24833;SDS011;12914;43.702;22.862;2022-08-21T05:00:31;27.23;;;22.25;;
24833;SDS011;12914;43.702;22.862;2022-08-21T05:02:57;31.60;;;25.13;;
24833;SDS011;12914;43.702;22.862;2022-08-21T05:05:25;26.17;;;23.38;;
24833;SDS011;12914;43.702;22.862;2022-08-21T05:07:53;35.35;;;23.48;;
24833;SDS011;12914;43.702;22.862;2022-08-21T05:10:21;34.70;;;24.90;;
24833;SDS011;12914;43.702;22.862;2022-08-21T05:12:47;27.30;;;23.25;;
24833;SDS011;12914;43.702;22.862;2022-08-21T05:15:14;26.60;;;22.08;;
24833;SDS011;12914;43.702;22.862;2022-08-21T05:17:40;28.80;;;22.67;;
24833;SDS011;12914;43.702;22.862;2022-08-21T05:20:07;22.33;;;19.80;;
24833;SDS011;12914;43.702;22.862;2022-08-21T05:22:36;22.40;;;18.92;;
24833;SDS011;12914;43.702;22.862;2022-08-21T05:25:02;27.25;;;17.77;;
24833;SDS011;12914;43.702;22.862;2022-08-21T05:27:29;22.17;;;16.38;;
24833;SDS011;12914;43.702;22.862;2022-08-21T05:29:55;23.00;;;16.25;;
24833;SDS011;12914;43.702;22.862;2022-08-21T05:32:21;20.10;;;15.18;;
24833;SDS011;12914;43.702;22.862;2022-08-21T05:34:47;23.15;;;18.85;;
24833;SDS011;12914;43.702;22.862;2022-08-21T05:37:12;25.00;;;19.52;;
24833;SDS011;12914;43.702;22.862;2022-08-21T05:39:38;27.40;;;19.85;;
24833;SDS011;12914;43.702;22.862;2022-08-21T05:42:04;23.92;;;18.38;;
24833;SDS011;12914;43.702;22.862;2022-08-21T05:44:29;23.30;;;18.55;;
24833;SDS011;12914;43.702;22.862;2022-08-21T05:46:55;20.38;;;17.73;;
24833;SDS011;12914;43.702;22.862;2022-08-21T05:49:27;20.60;;;16.33;;
24833;SDS011;12914;43.702;22.862;2022-08-21T05:51:53;20.05;;;14.27;;
24833;SDS011;12914;43.702;22.862;2022-08-21T05:54:18;18.40;;;12.20;;
24833;SDS011;12914;43.702;22.862;2022-08-21T05:56:44;12.52;;;11.23;;
24833;SDS011;12914;43.702;22.862;2022-08-21T05:59:10;15.63;;;11.88;;
24833;SDS011;12914;43.702;22.862;2022-08-21T06:01:35;14.82;;;11.98;;
24833;SDS011;12914;43.702;22.862;2022-08-21T06:04:01;16.63;;;12.00;;
24833;SDS011;12914;43.702;22.862;2022-08-21T06:06:27;21.33;;;12.90;;
24833;SDS011;12914;43.702;22.862;2022-08-21T06:08:52;19.30;;;13.05;;
24833;SDS011;12914;43.702;22.862;2022-08-21T06:11:18;17.10;;;13.80;;
24833;SDS011;12914;43.702;22.862;2022-08-21T06:13:43;16.42;;;13.77;;
24833;SDS011;12914;43.702;22.862;2022-08-21T06:16:10;19.90;;;15.00;;
24833;SDS011;12914;43.702;22.862;2022-08-21T06:18:37;21.20;;;15.15;;
24833;SDS011;12914;43.702;22.862;2022-08-21T06:21:03;21.08;;;14.95;;
24833;SDS011;12914;43.702;22.862;2022-08-21T06:23:30;18.77;;;14.18;;
24833;SDS011;12914;43.702;22.862;2022-08-21T06:25:55;17.83;;;13.80;;
24833;SDS011;12914;43.702;22.862;2022-08-21T06:28:21;24.45;;;14.02;;
24833;SDS011;12914;43.702;22.862;2022-08-21T06:30:46;15.35;;;13.50;;
24833;SDS011;12914;43.702;22.862;2022-08-21T06:33:12;16.42;;;14.30;;
24833;SDS011;12914;43.702;22.862;2022-08-21T06:35:37;17.55;;;14.70;;
24833;SDS011;12914;43.702;22.862;2022-08-21T06:38:03;18.98;;;15.57;;
24833;SDS011;12914;43.702;22.862;2022-08-21T06:40:29;18.27;;;14.82;;
24833;SDS011;12914;43.702;22.862;2022-08-21T06:42:55;20.13;;;15.80;;
24833;SDS011;12914;43.702;22.862;2022-08-21T06:45:21;15.82;;;13.80;;
24833;SDS011;12914;43.702;22.862;2022-08-21T06:47:47;21.67;;;14.73;;
24833;SDS011;12914;43.702;22.862;2022-08-21T06:50:13;16.73;;;14.70;;
24833;SDS011;12914;43.702;22.862;2022-08-21T06:52:39;19.58;;;15.63;;
24833;SDS011;12914;43.702;22.862;2022-08-21T06:55:05;19.02;;;15.40;;
24833;SDS011;12914;43.702;22.862;2022-08-21T06:57:32;18.13;;;14.48;;
24833;SDS011;12914;43.702;22.862;2022-08-21T06:59:58;17.55;;;14.65;;
24833;SDS011;12914;43.702;22.862;2022-08-21T07:02:23;18.38;;;14.15;;
24833;SDS011;12914;43.702;22.862;2022-08-21T07:04:49;20.35;;;15.00;;
24833;SDS011;12914;43.702;22.862;2022-08-21T07:07:16;20.33;;;14.55;;
24833;SDS011;12914;43.702;22.862;2022-08-21T07:09:41;18.73;;;15.00;;
24833;SDS011;12914;43.702;22.862;2022-08-21T07:12:07;23.00;;;13.88;;
24833;SDS011;12914;43.702;22.862;2022-08-21T07:14:34;19.65;;;14.57;;
24833;SDS011;12914;43.702;22.862;2022-08-21T07:17:00;21.85;;;15.10;;
24833;SDS011;12914;43.702;22.862;2022-08-21T07:19:26;23.38;;;14.85;;
24833;SDS011;12914;43.702;22.862;2022-08-21T07:21:53;16.50;;;13.15;;
24833;SDS011;12914;43.702;22.862;2022-08-21T07:24:24;16.15;;;11.90;;
24833;SDS011;12914;43.702;22.862;2022-08-21T07:26:50;14.85;;;12.23;;
24833;SDS011;12914;43.702;22.862;2022-08-21T07:29:15;14.27;;;11.40;;
24833;SDS011;12914;43.702;22.862;2022-08-21T07:31:41;14.70;;;12.68;;
24833;SDS011;12914;43.702;22.862;2022-08-21T07:34:07;14.45;;;12.50;;
24833;SDS011;12914;43.702;22.862;2022-08-21T07:36:33;14.52;;;12.80;;
24833;SDS011;12914;43.702;22.862;2022-08-21T07:38:59;18.02;;;12.95;;
24833;SDS011;12914;43.702;22.862;2022-08-21T07:41:26;14.60;;;12.65;;
24833;SDS011;12914;43.702;22.862;2022-08-21T07:43:54;17.05;;;13.10;;
24833;SDS011;12914;43.702;22.862;2022-08-21T07:46:24;15.57;;;11.82;;
24833;SDS011;12914;43.702;22.862;2022-08-21T07:48:50;13.52;;;10.85;;
24833;SDS011;12914;43.702;22.862;2022-08-21T07:51:16;13.60;;;12.15;;
24833;SDS011;12914;43.702;22.862;2022-08-21T07:53:47;15.75;;;9.80;;
24833;SDS011;12914;43.702;22.862;2022-08-21T07:56:15;13.63;;;11.10;;
24833;SDS011;12914;43.702;22.862;2022-08-21T07:58:41;12.27;;;9.88;;
24833;SDS011;12914;43.702;22.862;2022-08-21T08:01:06;14.52;;;10.65;;
24833;SDS011;12914;43.702;22.862;2022-08-21T08:03:32;19.77;;;10.98;;
24833;SDS011;12914;43.702;22.862;2022-08-21T08:05:58;15.80;;;10.70;;
24833;SDS011;12914;43.702;22.862;2022-08-21T08:08:24;12.25;;;10.70;;
24833;SDS011;12914;43.702;22.862;2022-08-21T08:10:50;14.18;;;10.50;;
24833;SDS011;12914;43.702;22.862;2022-08-21T08:13:16;13.90;;;9.45;;
24833;SDS011;12914;43.702;22.862;2022-08-21T08:15:42;15.85;;;10.00;;
24833;SDS011;12914;43.702;22.862;2022-08-21T08:18:07;16.00;;;9.77;;
24833;SDS011;12914;43.702;22.862;2022-08-21T08:20:33;15.63;;;11.30;;
24833;SDS011;12914;43.702;22.862;2022-08-21T08:22:58;17.65;;;12.25;;
24833;SDS011;12914;43.702;22.862;2022-08-21T08:25:24;14.35;;;11.60;;
24833;SDS011;12914;43.702;22.862;2022-08-21T08:27:51;13.35;;;10.60;;
24833;SDS011;12914;43.702;22.862;2022-08-21T08:30:17;17.27;;;11.68;;
24833;SDS011;12914;43.702;22.862;2022-08-21T08:32:44;12.77;;;10.50;;
24833;SDS011;12914;43.702;22.862;2022-08-21T08:35:10;15.05;;;11.05;;
24833;SDS011;12914;43.702;22.862;2022-08-21T08:37:37;12.82;;;9.80;;
24833;SDS011;12914;43.702;22.862;2022-08-21T08:40:06;21.23;;;12.80;;
24833;SDS011;12914;43.702;22.862;2022-08-21T08:42:35;15.60;;;10.25;;
24833;SDS011;12914;43.702;22.862;2022-08-21T08:47:32;11.40;;;10.20;;
24833;SDS011;12914;43.702;22.862;2022-08-21T08:50:03;12.75;;;9.52;;
24833;SDS011;12914;43.702;22.862;2022-08-21T08:52:30;11.40;;;10.10;;
24833;SDS011;12914;43.702;22.862;2022-08-21T08:57:26;14.35;;;8.95;;
24833;SDS011;12914;43.702;22.862;2022-08-21T08:59:53;10.30;;;9.10;;
24833;SDS011;12914;43.702;22.862;2022-08-21T09:02:23;13.20;;;9.77;;
24833;SDS011;12914;43.702;22.862;2022-08-21T09:04:49;10.18;;;9.00;;
24833;SDS011;12914;43.702;22.862;2022-08-21T09:10:22;12.80;;;9.43;;
24833;SDS011;12914;43.702;22.862;2022-08-21T09:23:46;12.30;;;10.05;;
24833;SDS011;12914;43.702;22.862;2022-08-21T09:28:54;12.45;;;9.00;;
24833;SDS011;12914;43.702;22.862;2022-08-21T09:31:31;10.55;;;8.80;;
24833;SDS011;12914;43.702;22.862;2022-08-21T09:36:42;13.45;;;9.65;;
24833;SDS011;12914;43.702;22.862;2022-08-21T09:39:10;11.90;;;8.75;;
24833;SDS011;12914;43.702;22.862;2022-08-21T09:41:37;12.27;;;9.50;;
24833;SDS011;12914;43.702;22.862;2022-08-21T09:44:04;12.05;;;9.88;;
24833;SDS011;12914;43.702;22.862;2022-08-21T09:46:32;11.52;;;10.23;;
24833;SDS011;12914;43.702;22.862;2022-08-21T09:48:59;14.77;;;10.13;;
24833;SDS011;12914;43.702;22.862;2022-08-21T09:51:36;11.60;;;9.48;;
24833;SDS011;12914;43.702;22.862;2022-08-21T09:56:38;11.40;;;9.30;;
24833;SDS011;12914;43.702;22.862;2022-08-21T09:59:34;14.15;;;10.23;;
24833;SDS011;12914;43.702;22.862;2022-08-21T10:02:01;15.80;;;9.40;;
24833;SDS011;12914;43.702;22.862;2022-08-21T10:04:39;14.70;;;10.23;;
24833;SDS011;12914;43.702;22.862;2022-08-21T10:07:11;10.60;;;9.50;;
24833;SDS011;12914;43.702;22.862;2022-08-21T10:09:39;16.13;;;10.00;;
24833;SDS011;12914;43.702;22.862;2022-08-21T10:20:14;11.95;;;9.18;;
24833;SDS011;12914;43.702;22.862;2022-08-21T10:28:30;11.00;;;8.60;;
24833;SDS011;12914;43.702;22.862;2022-08-21T10:34:07;12.23;;;8.70;;
24833;SDS011;12914;43.702;22.862;2022-08-21T10:39:19;14.13;;;8.70;;
24833;SDS011;12914;43.702;22.862;2022-08-21T10:47:34;13.10;;;9.90;;
24833;SDS011;12914;43.702;22.862;2022-08-21T10:50:23;12.45;;;8.80;;
24833;SDS011;12914;43.702;22.862;2022-08-21T10:53:10;12.90;;;9.18;;
24833;SDS011;12914;43.702;22.862;2022-08-21T10:56:02;13.82;;;7.90;;
24833;SDS011;12914;43.702;22.862;2022-08-21T11:01:57;9.27;;;7.90;;
24833;SDS011;12914;43.702;22.862;2022-08-21T11:06:57;17.85;;;9.43;;
24833;SDS011;12914;43.702;22.862;2022-08-21T11:09:28;11.20;;;8.35;;
24833;SDS011;12914;43.702;22.862;2022-08-21T11:15:07;10.60;;;8.23;;
24833;SDS011;12914;43.702;22.862;2022-08-21T11:17:38;11.75;;;7.88;;
24833;SDS011;12914;43.702;22.862;2022-08-21T11:20:14;9.50;;;7.55;;
24833;SDS011;12914;43.702;22.862;2022-08-21T11:22:48;9.25;;;7.82;;
24833;SDS011;12914;43.702;22.862;2022-08-21T11:28:13;9.33;;;8.33;;
24833;SDS011;12914;43.702;22.862;2022-08-21T11:30:49;11.30;;;8.65;;
24833;SDS011;12914;43.702;22.862;2022-08-21T11:36:30;10.82;;;9.52;;
24833;SDS011;12914;43.702;22.862;2022-08-21T11:39:02;10.93;;;8.90;;
24833;SDS011;12914;43.702;22.862;2022-08-21T11:44:46;13.40;;;9.38;;
24833;SDS011;12914;43.702;22.862;2022-08-21T11:50:14;13.88;;;10.70;;
24833;SDS011;12914;43.702;22.862;2022-08-21T11:52:41;13.05;;;10.57;;
24833;SDS011;12914;43.702;22.862;2022-08-21T11:55:21;13.00;;;10.57;;
24833;SDS011;12914;43.702;22.862;2022-08-21T12:00:40;11.95;;;9.52;;
24833;SDS011;12914;43.702;22.862;2022-08-21T12:06:00;9.65;;;8.57;;
24833;SDS011;12914;43.702;22.862;2022-08-21T12:08:43;12.38;;;9.20;;
24833;SDS011;12914;43.702;22.862;2022-08-21T12:14:12;14.48;;;9.50;;
24833;SDS011;12914;43.702;22.862;2022-08-21T12:16:47;15.48;;;10.05;;
24833;SDS011;12914;43.702;22.862;2022-08-21T12:21:50;12.00;;;9.50;;
24833;SDS011;12914;43.702;22.862;2022-08-21T12:26:57;17.90;;;10.00;;
24833;SDS011;12914;43.702;22.862;2022-08-21T12:29:32;12.93;;;9.65;;
24833;SDS011;12914;43.702;22.862;2022-08-21T12:37:52;11.48;;;9.43;;
24833;SDS011;12914;43.702;22.862;2022-08-21T12:40:29;7.50;;;6.32;;
24833;SDS011;12914;43.702;22.862;2022-08-21T12:42:59;10.32;;;6.45;;
24833;SDS011;12914;43.702;22.862;2022-08-21T12:51:12;7.85;;;6.93;;
24833;SDS011;12914;43.702;22.862;2022-08-21T12:56:26;9.73;;;7.43;;
24833;SDS011;12914;43.702;22.862;2022-08-21T12:59:05;11.40;;;8.07;;
24833;SDS011;12914;43.702;22.862;2022-08-21T13:01:33;17.90;;;8.48;;
24833;SDS011;12914;43.702;22.862;2022-08-21T13:04:03;13.57;;;9.23;;
24833;SDS011;12914;43.702;22.862;2022-08-21T13:06:39;15.50;;;9.15;;
24833;SDS011;12914;43.702;22.862;2022-08-21T13:09:08;15.57;;;9.55;;
24833;SDS011;12914;43.702;22.862;2022-08-21T13:11:37;11.10;;;9.32;;
24833;SDS011;12914;43.702;22.862;2022-08-21T13:14:05;14.15;;;9.13;;
24833;SDS011;12914;43.702;22.862;2022-08-21T13:16:35;12.05;;;8.57;;
24833;SDS011;12914;43.702;22.862;2022-08-21T13:19:03;16.90;;;10.38;;
24833;SDS011;12914;43.702;22.862;2022-08-21T13:21:38;16.73;;;9.57;;
24833;SDS011;12914;43.702;22.862;2022-08-21T13:24:16;16.25;;;9.35;;
24833;SDS011;12914;43.702;22.862;2022-08-21T13:26:43;22.58;;;10.02;;
24833;SDS011;12914;43.702;22.862;2022-08-21T13:29:13;11.60;;;8.32;;
24833;SDS011;12914;43.702;22.862;2022-08-21T13:31:42;12.70;;;8.38;;
24833;SDS011;12914;43.702;22.862;2022-08-21T13:34:16;10.85;;;7.47;;
24833;SDS011;12914;43.702;22.862;2022-08-21T13:36:43;14.73;;;6.78;;
24833;SDS011;12914;43.702;22.862;2022-08-21T13:39:10;14.80;;;7.00;;
24833;SDS011;12914;43.702;22.862;2022-08-21T13:41:39;12.25;;;5.97;;
24833;SDS011;12914;43.702;22.862;2022-08-21T13:44:18;14.43;;;5.77;;
24833;SDS011;12914;43.702;22.862;2022-08-21T13:46:46;8.38;;;5.15;;
24833;SDS011;12914;43.702;22.862;2022-08-21T13:49:17;5.95;;;4.53;;
24833;SDS011;12914;43.702;22.862;2022-08-21T13:51:45;7.32;;;4.35;;
24833;SDS011;12914;43.702;22.862;2022-08-21T13:54:21;9.93;;;4.57;;
24833;SDS011;12914;43.702;22.862;2022-08-21T13:56:51;8.27;;;4.75;;
24833;SDS011;12914;43.702;22.862;2022-08-21T13:59:24;7.72;;;3.70;;
24833;SDS011;12914;43.702;22.862;2022-08-21T14:04:37;6.80;;;4.57;;
24833;SDS011;12914;43.702;22.862;2022-08-21T14:07:45;8.23;;;5.00;;
24833;SDS011;12914;43.702;22.862;2022-08-21T14:10:16;5.30;;;3.78;;
24833;SDS011;12914;43.702;22.862;2022-08-21T14:12:48;6.22;;;3.72;;
24833;SDS011;12914;43.702;22.862;2022-08-21T14:15:23;6.97;;;3.92;;
24833;SDS011;12914;43.702;22.862;2022-08-21T14:20:37;9.50;;;4.10;;
24833;SDS011;12914;43.702;22.862;2022-08-21T14:23:02;5.85;;;3.90;;
24833;SDS011;12914;43.702;22.862;2022-08-21T14:25:29;5.63;;;3.40;;
24833;SDS011;12914;43.702;22.862;2022-08-21T14:28:43;5.60;;;4.72;;
24833;SDS011;12914;43.702;22.862;2022-08-21T14:31:16;6.65;;;4.45;;
24833;SDS011;12914;43.702;22.862;2022-08-21T14:33:43;6.55;;;5.13;;
24833;SDS011;12914;43.702;22.862;2022-08-21T14:36:09;5.82;;;3.92;;
24833;SDS011;12914;43.702;22.862;2022-08-21T14:38:36;5.10;;;3.50;;
24833;SDS011;12914;43.702;22.862;2022-08-21T14:41:13;6.75;;;4.50;;
24833;SDS011;12914;43.702;22.862;2022-08-21T14:43:53;8.02;;;3.63;;
24833;SDS011;12914;43.702;22.862;2022-08-21T14:46:27;6.53;;;4.03;;
24833;SDS011;12914;43.702;22.862;2022-08-21T14:48:54;9.73;;;4.80;;
24833;SDS011;12914;43.702;22.862;2022-08-21T14:51:20;7.07;;;4.93;;
24833;SDS011;12914;43.702;22.862;2022-08-21T14:53:46;8.60;;;6.05;;
24833;SDS011;12914;43.702;22.862;2022-08-21T14:56:12;10.63;;;6.95;;
24833;SDS011;12914;43.702;22.862;2022-08-21T14:58:41;13.88;;;8.15;;
24833;SDS011;12914;43.702;22.862;2022-08-21T15:01:11;11.85;;;9.13;;
24833;SDS011;12914;43.702;22.862;2022-08-21T15:03:39;17.50;;;10.30;;
24833;SDS011;12914;43.702;22.862;2022-08-21T15:06:05;14.52;;;10.15;;
24833;SDS011;12914;43.702;22.862;2022-08-21T15:08:32;14.07;;;10.45;;
24833;SDS011;12914;43.702;22.862;2022-08-21T15:10:58;15.88;;;10.45;;
24833;SDS011;12914;43.702;22.862;2022-08-21T15:13:25;18.17;;;11.75;;
24833;SDS011;12914;43.702;22.862;2022-08-21T15:15:52;17.25;;;11.82;;
24833;SDS011;12914;43.702;22.862;2022-08-21T15:18:21;21.45;;;13.18;;
24833;SDS011;12914;43.702;22.862;2022-08-21T15:20:48;19.95;;;13.25;;
24833;SDS011;12914;43.702;22.862;2022-08-21T15:23:14;21.38;;;13.82;;
24833;SDS011;12914;43.702;22.862;2022-08-21T15:25:41;19.15;;;14.30;;
24833;SDS011;12914;43.702;22.862;2022-08-21T15:28:08;21.02;;;14.48;;
24833;SDS011;12914;43.702;22.862;2022-08-21T15:30:35;20.55;;;14.50;;
24833;SDS011;12914;43.702;22.862;2022-08-21T15:33:02;22.17;;;15.55;;
24833;SDS011;12914;43.702;22.862;2022-08-21T15:35:28;26.13;;;17.60;;
24833;SDS011;12914;43.702;22.862;2022-08-21T15:37:54;27.17;;;17.27;;
24833;SDS011;12914;43.702;22.862;2022-08-21T15:40:19;24.30;;;17.95;;
24833;SDS011;12914;43.702;22.862;2022-08-21T15:42:45;25.52;;;17.92;;
24833;SDS011;12914;43.702;22.862;2022-08-21T15:45:12;27.52;;;17.75;;
24833;SDS011;12914;43.702;22.862;2022-08-21T15:47:38;30.65;;;16.25;;
24833;SDS011;12914;43.702;22.862;2022-08-21T15:50:07;26.45;;;18.15;;
24833;SDS011;12914;43.702;22.862;2022-08-21T15:52:34;26.63;;;17.88;;
24833;SDS011;12914;43.702;22.862;2022-08-21T15:54:59;24.23;;;17.40;;
24833;SDS011;12914;43.702;22.862;2022-08-21T15:57:25;27.10;;;17.13;;
24833;SDS011;12914;43.702;22.862;2022-08-21T15:59:53;26.15;;;17.42;;
24833;SDS011;12914;43.702;22.862;2022-08-21T16:02:25;25.85;;;17.80;;
24833;SDS011;12914;43.702;22.862;2022-08-21T16:04:54;24.08;;;17.27;;
24833;SDS011;12914;43.702;22.862;2022-08-21T16:07:20;25.00;;;18.02;;
24833;SDS011;12914;43.702;22.862;2022-08-21T16:09:46;24.15;;;17.10;;